Terminal Aerodrome Forecast
Issued by NWS Grand Forks, ND

Home | Current Version | Previous Version | Graphics & Text | Print | Product List | Glossary On
Versions: 1 2 3 4 5 6 7 8 9 10 11 12 13 14 15 16 17
601
FTUS43 KFGF 262339
TAFFAR
TAF
KFAR 262339Z 2700/2724 24003KT P6SM BKN060
     FM270600 13004KT P6SM BKN035
     FM271100 05004KT P6SM BKN025=

USA.gov is the U.S. government's official web portal to all federal, state and local government web resources and services.